sensor_id;sensor_type;location;lat;lon;timestamp;temperature;humidity
16666;DHT22;8446;50.998;6.250;2022-07-23T00:00:11;16.70;99.90
16666;DHT22;8446;50.998;6.250;2022-07-23T00:02:38;16.50;99.90
16666;DHT22;8446;50.998;6.250;2022-07-23T00:05:07;16.50;99.90
16666;DHT22;8446;50.998;6.250;2022-07-23T00:07:34;16.50;99.90
16666;DHT22;8446;50.998;6.250;2022-07-23T00:10:01;16.40;99.90
16666;DHT22;8446;50.998;6.250;2022-07-23T00:12:27;16.50;99.90
16666;DHT22;8446;50.998;6.250;2022-07-23T00:14:54;16.50;99.90
16666;DHT22;8446;50.998;6.250;2022-07-23T00:17:21;16.40;99.90
16666;DHT22;8446;50.998;6.250;2022-07-23T00:19:48;16.30;99.90
16666;DHT22;8446;50.998;6.250;2022-07-23T00:22:16;16.40;99.90
16666;DHT22;8446;50.998;6.250;2022-07-23T00:24:43;16.30;99.90
16666;DHT22;8446;50.998;6.250;2022-07-23T00:27:09;16.20;99.90
16666;DHT22;8446;50.998;6.250;2022-07-23T00:29:36;16.20;99.90
16666;DHT22;8446;50.998;6.250;2022-07-23T00:32:04;16.20;99.90
16666;DHT22;8446;50.998;6.250;2022-07-23T00:34:31;16.10;99.90
16666;DHT22;8446;50.998;6.250;2022-07-23T00:36:57;16.10;99.90
16666;DHT22;8446;50.998;6.250;2022-07-23T00:39:26;16.10;99.90
16666;DHT22;8446;50.998;6.250;2022-07-23T00:41:52;16.20;99.90
16666;DHT22;8446;50.998;6.250;2022-07-23T00:44:21;16.20;99.90
16666;DHT22;8446;50.998;6.250;2022-07-23T00:46:50;16.10;99.90
16666;DHT22;8446;50.998;6.250;2022-07-23T00:49:19;16.00;99.90
16666;DHT22;8446;50.998;6.250;2022-07-23T00:51:46;16.00;99.90
16666;DHT22;8446;50.998;6.250;2022-07-23T00:54:14;15.90;99.90
16666;DHT22;8446;50.998;6.250;2022-07-23T00:56:43;16.00;99.90
16666;DHT22;8446;50.998;6.250;2022-07-23T00:59:10;15.80;99.90
16666;DHT22;8446;50.998;6.250;2022-07-23T01:01:37;15.50;99.90
16666;DHT22;8446;50.998;6.250;2022-07-23T01:04:05;15.40;99.90
16666;DHT22;8446;50.998;6.250;2022-07-23T01:06:35;15.50;99.90
16666;DHT22;8446;50.998;6.250;2022-07-23T01:09:02;15.60;99.90
16666;DHT22;8446;50.998;6.250;2022-07-23T01:11:30;15.60;99.90
16666;DHT22;8446;50.998;6.250;2022-07-23T01:13:59;15.60;99.90
16666;DHT22;8446;50.998;6.250;2022-07-23T01:16:25;15.50;99.90
16666;DHT22;8446;50.998;6.250;2022-07-23T01:18:52;15.30;99.90
16666;DHT22;8446;50.998;6.250;2022-07-23T01:21:19;15.30;99.90
16666;DHT22;8446;50.998;6.250;2022-07-23T01:23:48;15.10;99.90
16666;DHT22;8446;50.998;6.250;2022-07-23T01:26:14;15.00;99.90
16666;DHT22;8446;50.998;6.250;2022-07-23T01:28:42;15.00;99.90
16666;DHT22;8446;50.998;6.250;2022-07-23T01:31:09;15.00;99.90
16666;DHT22;8446;50.998;6.250;2022-07-23T01:33:36;14.80;99.90
16666;DHT22;8446;50.998;6.250;2022-07-23T01:36:03;14.80;99.90
16666;DHT22;8446;50.998;6.250;2022-07-23T01:38:30;14.90;99.90
16666;DHT22;8446;50.998;6.250;2022-07-23T01:40:58;14.90;99.90
16666;DHT22;8446;50.998;6.250;2022-07-23T01:43:25;15.00;99.90
16666;DHT22;8446;50.998;6.250;2022-07-23T01:45:52;15.10;99.90
16666;DHT22;8446;50.998;6.250;2022-07-23T01:48:18;15.00;99.90
16666;DHT22;8446;50.998;6.250;2022-07-23T01:50:46;14.90;99.90
16666;DHT22;8446;50.998;6.250;2022-07-23T01:53:12;14.90;99.90
16666;DHT22;8446;50.998;6.250;2022-07-23T01:55:39;14.80;99.90
16666;DHT22;8446;50.998;6.250;2022-07-23T01:58:08;14.70;99.90
16666;DHT22;8446;50.998;6.250;2022-07-23T02:00:34;14.70;99.90
16666;DHT22;8446;50.998;6.250;2022-07-23T02:03:01;14.70;99.90
16666;DHT22;8446;50.998;6.250;2022-07-23T02:05:28;14.70;99.90
16666;DHT22;8446;50.998;6.250;2022-07-23T02:07:55;14.70;99.90
16666;DHT22;8446;50.998;6.250;2022-07-23T02:10:22;14.60;99.90
16666;DHT22;8446;50.998;6.250;2022-07-23T02:12:49;14.50;99.90
16666;DHT22;8446;50.998;6.250;2022-07-23T02:15:17;14.50;99.90
16666;DHT22;8446;50.998;6.250;2022-07-23T02:17:44;14.60;99.90
16666;DHT22;8446;50.998;6.250;2022-07-23T02:20:11;14.50;99.90
16666;DHT22;8446;50.998;6.250;2022-07-23T02:22:38;14.60;99.90
16666;DHT22;8446;50.998;6.250;2022-07-23T02:25:07;14.70;99.90
16666;DHT22;8446;50.998;6.250;2022-07-23T02:27:35;14.70;99.90
16666;DHT22;8446;50.998;6.250;2022-07-23T02:30:03;15.00;99.90
16666;DHT22;8446;50.998;6.250;2022-07-23T02:32:32;15.10;99.90
16666;DHT22;8446;50.998;6.250;2022-07-23T02:34:58;15.10;99.90
16666;DHT22;8446;50.998;6.250;2022-07-23T02:37:26;15.00;99.90
16666;DHT22;8446;50.998;6.250;2022-07-23T02:39:53;15.00;99.90
16666;DHT22;8446;50.998;6.250;2022-07-23T02:42:19;15.10;99.90
16666;DHT22;8446;50.998;6.250;2022-07-23T02:44:46;15.00;99.90
16666;DHT22;8446;50.998;6.250;2022-07-23T02:47:13;15.00;99.90
16666;DHT22;8446;50.998;6.250;2022-07-23T02:49:41;14.90;99.90
16666;DHT22;8446;50.998;6.250;2022-07-23T02:52:08;14.80;99.90
16666;DHT22;8446;50.998;6.250;2022-07-23T02:54:35;14.80;99.90
16666;DHT22;8446;50.998;6.250;2022-07-23T02:57:02;14.70;99.90
16666;DHT22;8446;50.998;6.250;2022-07-23T02:59:29;14.80;99.90
16666;DHT22;8446;50.998;6.250;2022-07-23T03:01:56;14.80;99.90
16666;DHT22;8446;50.998;6.250;2022-07-23T03:04:23;14.70;99.90
16666;DHT22;8446;50.998;6.250;2022-07-23T03:06:51;14.70;99.90
16666;DHT22;8446;50.998;6.250;2022-07-23T03:09:18;14.70;99.90
16666;DHT22;8446;50.998;6.250;2022-07-23T03:11:45;14.70;99.90
16666;DHT22;8446;50.998;6.250;2022-07-23T03:14:12;14.60;99.90
16666;DHT22;8446;50.998;6.250;2022-07-23T03:16:40;14.60;99.90
16666;DHT22;8446;50.998;6.250;2022-07-23T03:19:07;14.40;99.90
16666;DHT22;8446;50.998;6.250;2022-07-23T03:21:33;14.10;99.90
16666;DHT22;8446;50.998;6.250;2022-07-23T03:24:06;14.10;99.90
16666;DHT22;8446;50.998;6.250;2022-07-23T03:26:33;14.10;99.90
16666;DHT22;8446;50.998;6.250;2022-07-23T03:29:00;14.00;99.90
16666;DHT22;8446;50.998;6.250;2022-07-23T03:31:29;14.10;99.90
16666;DHT22;8446;50.998;6.250;2022-07-23T03:33:55;14.10;99.90
16666;DHT22;8446;50.998;6.250;2022-07-23T03:36:22;14.10;99.90
16666;DHT22;8446;50.998;6.250;2022-07-23T03:38:49;13.80;99.90
16666;DHT22;8446;50.998;6.250;2022-07-23T03:41:18;13.80;99.90
16666;DHT22;8446;50.998;6.250;2022-07-23T03:43:45;13.80;99.90
16666;DHT22;8446;50.998;6.250;2022-07-23T03:46:12;13.70;99.90
16666;DHT22;8446;50.998;6.250;2022-07-23T03:48:39;13.70;99.90
16666;DHT22;8446;50.998;6.250;2022-07-23T03:51:05;13.70;99.90
16666;DHT22;8446;50.998;6.250;2022-07-23T03:53:33;13.80;99.90
16666;DHT22;8446;50.998;6.250;2022-07-23T03:56:00;13.70;99.90
16666;DHT22;8446;50.998;6.250;2022-07-23T03:58:28;13.70;99.90
16666;DHT22;8446;50.998;6.250;2022-07-23T04:00:54;13.90;99.90
16666;DHT22;8446;50.998;6.250;2022-07-23T04:03:21;13.70;99.90
16666;DHT22;8446;50.998;6.250;2022-07-23T04:05:48;13.70;99.90
16666;DHT22;8446;50.998;6.250;2022-07-23T04:08:15;13.80;99.90
16666;DHT22;8446;50.998;6.250;2022-07-23T04:10:42;13.70;99.90
16666;DHT22;8446;50.998;6.250;2022-07-23T04:13:08;13.80;99.90
16666;DHT22;8446;50.998;6.250;2022-07-23T04:15:36;13.80;99.90
16666;DHT22;8446;50.998;6.250;2022-07-23T04:18:04;13.90;99.90
16666;DHT22;8446;50.998;6.250;2022-07-23T04:20:31;13.90;99.90
16666;DHT22;8446;50.998;6.250;2022-07-23T04:22:57;13.90;99.90
16666;DHT22;8446;50.998;6.250;2022-07-23T04:25:24;14.00;99.90
16666;DHT22;8446;50.998;6.250;2022-07-23T04:27:51;14.00;99.90
16666;DHT22;8446;50.998;6.250;2022-07-23T04:30:18;13.90;99.90
16666;DHT22;8446;50.998;6.250;2022-07-23T04:32:46;13.90;99.90
16666;DHT22;8446;50.998;6.250;2022-07-23T04:35:13;13.90;99.90
16666;DHT22;8446;50.998;6.250;2022-07-23T04:37:40;14.00;99.90
16666;DHT22;8446;50.998;6.250;2022-07-23T04:40:07;14.00;99.90
16666;DHT22;8446;50.998;6.250;2022-07-23T04:42:34;14.10;99.90
16666;DHT22;8446;50.998;6.250;2022-07-23T04:45:01;13.90;99.90
16666;DHT22;8446;50.998;6.250;2022-07-23T04:47:29;14.00;99.90
16666;DHT22;8446;50.998;6.250;2022-07-23T04:49:57;14.20;99.90
16666;DHT22;8446;50.998;6.250;2022-07-23T04:52:24;14.30;99.90
16666;DHT22;8446;50.998;6.250;2022-07-23T04:54:51;14.30;99.90
16666;DHT22;8446;50.998;6.250;2022-07-23T04:57:18;14.30;99.90
16666;DHT22;8446;50.998;6.250;2022-07-23T04:59:44;14.40;99.90
16666;DHT22;8446;50.998;6.250;2022-07-23T05:02:11;14.40;99.90
16666;DHT22;8446;50.998;6.250;2022-07-23T05:04:38;14.40;99.90
16666;DHT22;8446;50.998;6.250;2022-07-23T05:07:06;14.50;99.90
16666;DHT22;8446;50.998;6.250;2022-07-23T05:09:33;14.50;99.90
16666;DHT22;8446;50.998;6.250;2022-07-23T05:12:00;14.60;99.90
16666;DHT22;8446;50.998;6.250;2022-07-23T05:14:27;14.60;99.90
16666;DHT22;8446;50.998;6.250;2022-07-23T05:16:54;14.70;99.90
16666;DHT22;8446;50.998;6.250;2022-07-23T05:19:21;14.70;99.90
16666;DHT22;8446;50.998;6.250;2022-07-23T05:21:48;14.80;99.90
16666;DHT22;8446;50.998;6.250;2022-07-23T05:24:16;14.90;99.90
16666;DHT22;8446;50.998;6.250;2022-07-23T05:26:43;14.90;99.90
16666;DHT22;8446;50.998;6.250;2022-07-23T05:29:10;15.00;99.90
16666;DHT22;8446;50.998;6.250;2022-07-23T05:31:37;15.00;99.90
16666;DHT22;8446;50.998;6.250;2022-07-23T05:34:03;15.00;99.90
16666;DHT22;8446;50.998;6.250;2022-07-23T05:36:31;15.00;99.90
16666;DHT22;8446;50.998;6.250;2022-07-23T05:38:58;14.90;99.90
16666;DHT22;8446;50.998;6.250;2022-07-23T05:41:26;15.10;99.90
16666;DHT22;8446;50.998;6.250;2022-07-23T05:43:53;15.10;99.90
16666;DHT22;8446;50.998;6.250;2022-07-23T05:46:20;15.10;99.90
16666;DHT22;8446;50.998;6.250;2022-07-23T05:48:46;15.20;99.90
16666;DHT22;8446;50.998;6.250;2022-07-23T05:51:19;15.30;99.90
16666;DHT22;8446;50.998;6.250;2022-07-23T05:53:46;15.50;99.90
16666;DHT22;8446;50.998;6.250;2022-07-23T05:56:13;15.40;99.90
16666;DHT22;8446;50.998;6.250;2022-07-23T05:58:41;15.50;99.90
16666;DHT22;8446;50.998;6.250;2022-07-23T06:01:08;15.50;99.90
16666;DHT22;8446;50.998;6.250;2022-07-23T06:03:35;15.60;99.90
16666;DHT22;8446;50.998;6.250;2022-07-23T06:06:02;15.60;99.90
16666;DHT22;8446;50.998;6.250;2022-07-23T06:08:29;15.80;99.90
16666;DHT22;8446;50.998;6.250;2022-07-23T06:10:55;15.80;99.90
16666;DHT22;8446;50.998;6.250;2022-07-23T06:13:22;15.80;99.90
16666;DHT22;8446;50.998;6.250;2022-07-23T06:15:50;16.00;99.90
16666;DHT22;8446;50.998;6.250;2022-07-23T06:18:17;16.00;99.90
16666;DHT22;8446;50.998;6.250;2022-07-23T06:20:44;16.00;99.90
16666;DHT22;8446;50.998;6.250;2022-07-23T06:23:11;16.20;99.90
16666;DHT22;8446;50.998;6.250;2022-07-23T06:25:37;16.20;99.90
16666;DHT22;8446;50.998;6.250;2022-07-23T06:28:04;16.30;99.90
16666;DHT22;8446;50.998;6.250;2022-07-23T06:30:31;16.30;99.90
16666;DHT22;8446;50.998;6.250;2022-07-23T06:32:59;16.20;99.90
16666;DHT22;8446;50.998;6.250;2022-07-23T06:35:26;16.50;99.90
16666;DHT22;8446;50.998;6.250;2022-07-23T06:37:53;16.70;99.90
16666;DHT22;8446;50.998;6.250;2022-07-23T06:40:19;16.90;99.90
16666;DHT22;8446;50.998;6.250;2022-07-23T06:42:46;16.80;99.90
16666;DHT22;8446;50.998;6.250;2022-07-23T06:45:14;17.00;99.90
16666;DHT22;8446;50.998;6.250;2022-07-23T06:47:40;16.90;99.90
16666;DHT22;8446;50.998;6.250;2022-07-23T06:50:09;17.20;99.90
16666;DHT22;8446;50.998;6.250;2022-07-23T06:52:36;17.30;99.90
16666;DHT22;8446;50.998;6.250;2022-07-23T06:55:03;17.40;99.90
16666;DHT22;8446;50.998;6.250;2022-07-23T06:57:30;17.40;99.90
16666;DHT22;8446;50.998;6.250;2022-07-23T06:59:57;17.40;99.90
16666;DHT22;8446;50.998;6.250;2022-07-23T07:02:24;17.40;99.90
16666;DHT22;8446;50.998;6.250;2022-07-23T07:04:51;17.60;99.90
16666;DHT22;8446;50.998;6.250;2022-07-23T07:07:19;17.70;99.90
16666;DHT22;8446;50.998;6.250;2022-07-23T07:09:46;17.60;99.90
16666;DHT22;8446;50.998;6.250;2022-07-23T07:12:13;17.70;99.90
16666;DHT22;8446;50.998;6.250;2022-07-23T07:14:40;17.70;99.90
16666;DHT22;8446;50.998;6.250;2022-07-23T07:17:06;18.00;99.90
16666;DHT22;8446;50.998;6.250;2022-07-23T07:19:33;18.00;99.90
16666;DHT22;8446;50.998;6.250;2022-07-23T07:22:00;18.20;99.90
16666;DHT22;8446;50.998;6.250;2022-07-23T07:24:28;18.40;99.90
16666;DHT22;8446;50.998;6.250;2022-07-23T07:26:55;18.10;99.90
16666;DHT22;8446;50.998;6.250;2022-07-23T07:29:21;18.30;99.90
16666;DHT22;8446;50.998;6.250;2022-07-23T07:31:48;18.20;99.90
16666;DHT22;8446;50.998;6.250;2022-07-23T07:34:15;18.70;99.90
16666;DHT22;8446;50.998;6.250;2022-07-23T07:36:42;18.80;99.90
16666;DHT22;8446;50.998;6.250;2022-07-23T07:39:09;18.80;99.90
16666;DHT22;8446;50.998;6.250;2022-07-23T07:41:37;18.70;99.90
16666;DHT22;8446;50.998;6.250;2022-07-23T07:44:04;18.70;99.90
16666;DHT22;8446;50.998;6.250;2022-07-23T07:46:31;18.30;99.90
16666;DHT22;8446;50.998;6.250;2022-07-23T07:48:58;18.70;99.90
16666;DHT22;8446;50.998;6.250;2022-07-23T07:51:25;19.10;99.90
16666;DHT22;8446;50.998;6.250;2022-07-23T07:53:52;19.10;99.90
16666;DHT22;8446;50.998;6.250;2022-07-23T07:56:20;20.20;99.90
16666;DHT22;8446;50.998;6.250;2022-07-23T07:58:48;19.40;99.90
16666;DHT22;8446;50.998;6.250;2022-07-23T08:01:15;19.30;99.90
16666;DHT22;8446;50.998;6.250;2022-07-23T08:03:42;19.20;99.90
16666;DHT22;8446;50.998;6.250;2022-07-23T08:06:09;19.60;99.90
16666;DHT22;8446;50.998;6.250;2022-07-23T08:08:36;19.40;99.90
16666;DHT22;8446;50.998;6.250;2022-07-23T08:11:02;20.30;99.90
16666;DHT22;8446;50.998;6.250;2022-07-23T08:13:29;20.00;99.90
16666;DHT22;8446;50.998;6.250;2022-07-23T08:15:57;20.50;99.90
16666;DHT22;8446;50.998;6.250;2022-07-23T08:18:24;20.70;99.90
16666;DHT22;8446;50.998;6.250;2022-07-23T08:20:51;20.40;99.90
16666;DHT22;8446;50.998;6.250;2022-07-23T08:23:18;20.60;99.90
16666;DHT22;8446;50.998;6.250;2022-07-23T08:25:45;20.30;99.90
16666;DHT22;8446;50.998;6.250;2022-07-23T08:28:14;20.50;99.90
16666;DHT22;8446;50.998;6.250;2022-07-23T08:30:43;20.60;99.90
16666;DHT22;8446;50.998;6.250;2022-07-23T08:33:13;20.20;99.90
16666;DHT22;8446;50.998;6.250;2022-07-23T08:35:41;20.00;99.90
16666;DHT22;8446;50.998;6.250;2022-07-23T08:38:10;20.20;99.90
16666;DHT22;8446;50.998;6.250;2022-07-23T08:40:38;20.60;99.90
16666;DHT22;8446;50.998;6.250;2022-07-23T08:43:07;20.80;99.90
16666;DHT22;8446;50.998;6.250;2022-07-23T08:45:36;20.90;99.90
16666;DHT22;8446;50.998;6.250;2022-07-23T08:48:05;21.40;99.90
16666;DHT22;8446;50.998;6.250;2022-07-23T08:50:34;21.30;99.90
16666;DHT22;8446;50.998;6.250;2022-07-23T08:53:06;20.70;99.90
16666;DHT22;8446;50.998;6.250;2022-07-23T08:55:33;20.90;99.90
16666;DHT22;8446;50.998;6.250;2022-07-23T08:57:59;20.30;99.90
16666;DHT22;8446;50.998;6.250;2022-07-23T09:00:27;20.20;99.90
16666;DHT22;8446;50.998;6.250;2022-07-23T09:02:53;20.50;99.90
16666;DHT22;8446;50.998;6.250;2022-07-23T09:05:20;21.30;99.90
16666;DHT22;8446;50.998;6.250;2022-07-23T09:08:06;21.20;99.90
16666;DHT22;8446;50.998;6.250;2022-07-23T09:10:44;22.20;99.90
16666;DHT22;8446;50.998;6.250;2022-07-23T09:13:24;21.60;99.90
16666;DHT22;8446;50.998;6.250;2022-07-23T09:15:52;21.70;99.90
16666;DHT22;8446;50.998;6.250;2022-07-23T09:18:27;21.50;99.90
16666;DHT22;8446;50.998;6.250;2022-07-23T09:21:05;20.70;99.90
16666;DHT22;8446;50.998;6.250;2022-07-23T09:23:38;20.40;99.90
16666;DHT22;8446;50.998;6.250;2022-07-23T09:26:17;20.80;99.90
16666;DHT22;8446;50.998;6.250;2022-07-23T09:28:51;21.00;99.90
16666;DHT22;8446;50.998;6.250;2022-07-23T09:31:19;21.50;99.90
16666;DHT22;8446;50.998;6.250;2022-07-23T09:33:46;21.30;99.90
16666;DHT22;8446;50.998;6.250;2022-07-23T09:36:13;21.10;99.90
16666;DHT22;8446;50.998;6.250;2022-07-23T09:38:49;21.20;99.90
16666;DHT22;8446;50.998;6.250;2022-07-23T09:41:17;21.80;99.90
16666;DHT22;8446;50.998;6.250;2022-07-23T09:43:44;22.70;99.90
16666;DHT22;8446;50.998;6.250;2022-07-23T09:46:18;21.90;99.90
16666;DHT22;8446;50.998;6.250;2022-07-23T09:48:45;22.10;99.90
16666;DHT22;8446;50.998;6.250;2022-07-23T09:51:12;22.20;99.90
16666;DHT22;8446;50.998;6.250;2022-07-23T09:53:39;22.60;99.90
16666;DHT22;8446;50.998;6.250;2022-07-23T09:56:08;22.50;99.90
16666;DHT22;8446;50.998;6.250;2022-07-23T09:58:39;22.40;99.90
16666;DHT22;8446;50.998;6.250;2022-07-23T10:01:12;22.80;99.90
16666;DHT22;8446;50.998;6.250;2022-07-23T10:03:40;23.00;99.90
16666;DHT22;8446;50.998;6.250;2022-07-23T10:06:08;22.90;99.90
16666;DHT22;8446;50.998;6.250;2022-07-23T10:08:36;23.50;99.90
16666;DHT22;8446;50.998;6.250;2022-07-23T10:11:07;22.80;99.90
16666;DHT22;8446;50.998;6.250;2022-07-23T10:13:36;22.80;99.90
16666;DHT22;8446;50.998;6.250;2022-07-23T10:16:16;22.80;99.90
16666;DHT22;8446;50.998;6.250;2022-07-23T10:18:43;22.80;99.90
16666;DHT22;8446;50.998;6.250;2022-07-23T10:21:10;23.00;99.90
16666;DHT22;8446;50.998;6.250;2022-07-23T10:23:42;23.70;99.90
16666;DHT22;8446;50.998;6.250;2022-07-23T10:26:22;23.70;99.90
16666;DHT22;8446;50.998;6.250;2022-07-23T10:29:02;24.60;99.90
16666;DHT22;8446;50.998;6.250;2022-07-23T10:31:41;24.70;99.90
16666;DHT22;8446;50.998;6.250;2022-07-23T10:34:16;24.50;99.90
16666;DHT22;8446;50.998;6.250;2022-07-23T10:36:48;24.40;99.90
16666;DHT22;8446;50.998;6.250;2022-07-23T10:39:21;23.50;99.90
16666;DHT22;8446;50.998;6.250;2022-07-23T10:41:50;23.20;99.90
16666;DHT22;8446;50.998;6.250;2022-07-23T10:44:19;23.40;99.90
16666;DHT22;8446;50.998;6.250;2022-07-23T10:46:58;23.70;99.90
16666;DHT22;8446;50.998;6.250;2022-07-23T10:49:37;24.40;99.90
16666;DHT22;8446;50.998;6.250;2022-07-23T10:52:32;24.70;99.90
16666;DHT22;8446;50.998;6.250;2022-07-23T10:58:01;23.90;99.90
16666;DHT22;8446;50.998;6.250;2022-07-23T11:00:28;24.10;99.90
16666;DHT22;8446;50.998;6.250;2022-07-23T11:02:57;24.30;99.90
16666;DHT22;8446;50.998;6.250;2022-07-23T11:05:26;23.90;99.90
16666;DHT22;8446;50.998;6.250;2022-07-23T11:08:12;24.20;99.90
16666;DHT22;8446;50.998;6.250;2022-07-23T11:10:41;25.40;99.90
16666;DHT22;8446;50.998;6.250;2022-07-23T11:19:10;24.90;99.90
16666;DHT22;8446;50.998;6.250;2022-07-23T11:21:44;24.90;99.90
16666;DHT22;8446;50.998;6.250;2022-07-23T11:24:13;24.60;99.90
16666;DHT22;8446;50.998;6.250;2022-07-23T11:26:49;25.00;99.90
16666;DHT22;8446;50.998;6.250;2022-07-23T11:29:40;24.40;99.90
16666;DHT22;8446;50.998;6.250;2022-07-23T11:32:18;23.80;99.90
16666;DHT22;8446;50.998;6.250;2022-07-23T11:34:46;23.20;99.90
16666;DHT22;8446;50.998;6.250;2022-07-23T11:37:36;23.70;99.90
16666;DHT22;8446;50.998;6.250;2022-07-23T11:40:07;24.50;99.90
16666;DHT22;8446;50.998;6.250;2022-07-23T11:42:36;24.70;99.90
16666;DHT22;8446;50.998;6.250;2022-07-23T11:45:04;24.30;99.90
16666;DHT22;8446;50.998;6.250;2022-07-23T11:47:32;24.80;99.90
16666;DHT22;8446;50.998;6.250;2022-07-23T11:50:00;24.30;99.90
16666;DHT22;8446;50.998;6.250;2022-07-23T11:52:28;24.40;99.90
16666;DHT22;8446;50.998;6.250;2022-07-23T11:54:56;24.60;99.90
16666;DHT22;8446;50.998;6.250;2022-07-23T11:57:32;24.50;99.90
16666;DHT22;8446;50.998;6.250;2022-07-23T12:00:03;25.00;99.90
16666;DHT22;8446;50.998;6.250;2022-07-23T12:02:32;25.50;99.90
16666;DHT22;8446;50.998;6.250;2022-07-23T12:04:59;24.70;99.90
16666;DHT22;8446;50.998;6.250;2022-07-23T12:07:28;25.00;99.90
16666;DHT22;8446;50.998;6.250;2022-07-23T12:09:56;25.10;99.90
16666;DHT22;8446;50.998;6.250;2022-07-23T12:12:24;25.30;99.90
16666;DHT22;8446;50.998;6.250;2022-07-23T12:14:53;25.70;99.90
16666;DHT22;8446;50.998;6.250;2022-07-23T12:17:20;25.50;99.90
16666;DHT22;8446;50.998;6.250;2022-07-23T12:19:49;25.10;99.90
16666;DHT22;8446;50.998;6.250;2022-07-23T12:22:16;24.90;99.90
16666;DHT22;8446;50.998;6.250;2022-07-23T12:24:56;25.60;99.90
16666;DHT22;8446;50.998;6.250;2022-07-23T12:27:24;25.50;99.90
16666;DHT22;8446;50.998;6.250;2022-07-23T12:29:51;25.90;99.90
16666;DHT22;8446;50.998;6.250;2022-07-23T12:32:22;25.80;99.90
16666;DHT22;8446;50.998;6.250;2022-07-23T12:35:02;25.40;99.90
16666;DHT22;8446;50.998;6.250;2022-07-23T12:37:31;25.50;99.90
16666;DHT22;8446;50.998;6.250;2022-07-23T12:39:58;25.20;99.90
16666;DHT22;8446;50.998;6.250;2022-07-23T12:42:25;25.10;99.90
16666;DHT22;8446;50.998;6.250;2022-07-23T12:45:10;25.40;99.90
16666;DHT22;8446;50.998;6.250;2022-07-23T12:47:56;26.00;99.90
16666;DHT22;8446;50.998;6.250;2022-07-23T12:50:44;25.50;99.90
16666;DHT22;8446;50.998;6.250;2022-07-23T12:53:15;25.50;99.90
16666;DHT22;8446;50.998;6.250;2022-07-23T12:55:44;25.20;99.90
16666;DHT22;8446;50.998;6.250;2022-07-23T12:58:14;25.50;99.90
16666;DHT22;8446;50.998;6.250;2022-07-23T13:00:53;25.70;99.90
16666;DHT22;8446;50.998;6.250;2022-07-23T13:03:25;26.00;99.90
16666;DHT22;8446;50.998;6.250;2022-07-23T13:05:54;26.60;99.90
16666;DHT22;8446;50.998;6.250;2022-07-23T13:08:22;26.10;99.90
16666;DHT22;8446;50.998;6.250;2022-07-23T13:10:49;26.00;99.90
16666;DHT22;8446;50.998;6.250;2022-07-23T13:13:19;26.30;99.90
16666;DHT22;8446;50.998;6.250;2022-07-23T13:15:47;26.90;99.90
16666;DHT22;8446;50.998;6.250;2022-07-23T13:18:15;26.50;98.50
16666;DHT22;8446;50.998;6.250;2022-07-23T13:20:43;26.90;96.10
16666;DHT22;8446;50.998;6.250;2022-07-23T13:23:11;26.70;95.10
16666;DHT22;8446;50.998;6.250;2022-07-23T13:25:38;26.70;96.00
16666;DHT22;8446;50.998;6.250;2022-07-23T13:28:05;27.00;95.90
16666;DHT22;8446;50.998;6.250;2022-07-23T13:30:32;26.70;98.20
16666;DHT22;8446;50.998;6.250;2022-07-23T13:32:59;27.40;94.10
16666;DHT22;8446;50.998;6.250;2022-07-23T13:35:25;27.10;98.90
16666;DHT22;8446;50.998;6.250;2022-07-23T13:37:52;26.80;97.20
16666;DHT22;8446;50.998;6.250;2022-07-23T13:40:21;26.10;97.10
16666;DHT22;8446;50.998;6.250;2022-07-23T13:42:48;25.80;96.50
16666;DHT22;8446;50.998;6.250;2022-07-23T13:45:15;26.60;98.50
16666;DHT22;8446;50.998;6.250;2022-07-23T13:47:41;26.90;95.90
16666;DHT22;8446;50.998;6.250;2022-07-23T13:50:08;27.60;99.00
16666;DHT22;8446;50.998;6.250;2022-07-23T13:52:35;27.60;97.10
16666;DHT22;8446;50.998;6.250;2022-07-23T13:55:03;27.10;94.40
16666;DHT22;8446;50.998;6.250;2022-07-23T13:57:32;26.60;96.40
16666;DHT22;8446;50.998;6.250;2022-07-23T13:59:59;27.40;96.60
16666;DHT22;8446;50.998;6.250;2022-07-23T14:02:26;27.80;98.90
16666;DHT22;8446;50.998;6.250;2022-07-23T14:04:55;27.60;94.90
16666;DHT22;8446;50.998;6.250;2022-07-23T14:07:23;26.40;98.30
16666;DHT22;8446;50.998;6.250;2022-07-23T14:09:50;26.40;94.00
16666;DHT22;8446;50.998;6.250;2022-07-23T14:12:16;27.40;94.30
16666;DHT22;8446;50.998;6.250;2022-07-23T14:14:44;27.10;96.20
16666;DHT22;8446;50.998;6.250;2022-07-23T14:17:11;27.50;99.30
16666;DHT22;8446;50.998;6.250;2022-07-23T14:19:38;27.10;93.90
16666;DHT22;8446;50.998;6.250;2022-07-23T14:22:05;26.40;96.20
16666;DHT22;8446;50.998;6.250;2022-07-23T14:24:32;26.70;94.20
16666;DHT22;8446;50.998;6.250;2022-07-23T14:27:00;26.70;94.20
16666;DHT22;8446;50.998;6.250;2022-07-23T14:29:28;27.60;94.60
16666;DHT22;8446;50.998;6.250;2022-07-23T14:31:57;27.70;96.10
16666;DHT22;8446;50.998;6.250;2022-07-23T14:34:24;27.70;92.30
16666;DHT22;8446;50.998;6.250;2022-07-23T14:36:51;27.60;95.70
16666;DHT22;8446;50.998;6.250;2022-07-23T14:39:18;27.10;92.70
16666;DHT22;8446;50.998;6.250;2022-07-23T14:41:44;26.70;93.90
16666;DHT22;8446;50.998;6.250;2022-07-23T14:44:11;27.70;92.10
16666;DHT22;8446;50.998;6.250;2022-07-23T14:46:38;27.10;94.20
16666;DHT22;8446;50.998;6.250;2022-07-23T14:49:07;26.70;94.60
16666;DHT22;8446;50.998;6.250;2022-07-23T14:51:34;27.80;95.20
16666;DHT22;8446;50.998;6.250;2022-07-23T14:54:02;27.10;94.90
16666;DHT22;8446;50.998;6.250;2022-07-23T14:56:29;27.50;93.40
16666;DHT22;8446;50.998;6.250;2022-07-23T14:58:56;27.50;93.60
16666;DHT22;8446;50.998;6.250;2022-07-23T15:01:23;27.60;91.20
16666;DHT22;8446;50.998;6.250;2022-07-23T15:03:50;27.10;94.80
16666;DHT22;8446;50.998;6.250;2022-07-23T15:06:18;27.20;95.20
16666;DHT22;8446;50.998;6.250;2022-07-23T15:08:45;27.30;93.10
16666;DHT22;8446;50.998;6.250;2022-07-23T15:11:11;27.30;94.30
16666;DHT22;8446;50.998;6.250;2022-07-23T15:13:38;27.50;98.90
16666;DHT22;8446;50.998;6.250;2022-07-23T15:16:06;27.40;97.70
16666;DHT22;8446;50.998;6.250;2022-07-23T15:18:32;27.60;95.20
16666;DHT22;8446;50.998;6.250;2022-07-23T15:21:00;27.10;93.30
16666;DHT22;8446;50.998;6.250;2022-07-23T15:23:28;27.30;93.60
16666;DHT22;8446;50.998;6.250;2022-07-23T15:25:55;26.60;92.80
16666;DHT22;8446;50.998;6.250;2022-07-23T15:28:23;27.50;93.90
16666;DHT22;8446;50.998;6.250;2022-07-23T15:30:50;27.30;95.20
16666;DHT22;8446;50.998;6.250;2022-07-23T15:33:17;27.60;93.40
16666;DHT22;8446;50.998;6.250;2022-07-23T15:35:44;28.10;96.20
16666;DHT22;8446;50.998;6.250;2022-07-23T15:38:11;27.70;93.80
16666;DHT22;8446;50.998;6.250;2022-07-23T15:40:39;27.80;93.50
16666;DHT22;8446;50.998;6.250;2022-07-23T15:43:06;27.90;94.70
16666;DHT22;8446;50.998;6.250;2022-07-23T15:45:33;27.60;93.20
16666;DHT22;8446;50.998;6.250;2022-07-23T15:47:59;27.70;93.40
16666;DHT22;8446;50.998;6.250;2022-07-23T15:50:26;27.50;93.30
16666;DHT22;8446;50.998;6.250;2022-07-23T15:52:53;27.40;93.10
16666;DHT22;8446;50.998;6.250;2022-07-23T15:55:20;27.60;97.30
16666;DHT22;8446;50.998;6.250;2022-07-23T15:57:48;27.20;93.90
16666;DHT22;8446;50.998;6.250;2022-07-23T16:00:16;27.40;93.00